Time;durP1;ratioP1;P1;durP2;ratioP2;P2;SDS_P1;SDS_P2;PMS_P1;PMS_P2;Temp;Humidity;BMP_temperature;BMP_pressure;BME280_temperature;BME280_humidity;BME280_pressure;Samples;Min_cycle;Max_cycle;Signal;HPM_P1;HPM_P2
2022/11/20 00:00:17;;;;;;;30.02;22.13;;;-0.80;38.00;;;;;;5057781;28;20421;-60
2022/11/20 00:02:43;;;;;;;31.92;21.75;;;-0.70;43.00;;;;;;5054416;28;20923;-60
2022/11/20 00:05:10;;;;;;;30.67;22.00;;;-0.70;46.10;;;;;;5052909;28;20908;-60
2022/11/20 00:07:37;;;;;;;30.63;20.77;;;-0.70;53.30;;;;;;5051659;28;20831;-60
2022/11/20 00:10:04;;;;;;;34.75;22.23;;;-0.60;56.90;;;;;;5053132;28;20784;-60
2022/11/20 00:12:32;;;;;;;29.52;20.98;;;-0.50;65.80;;;;;;5052757;28;20425;-60
2022/11/20 00:14:58;;;;;;;31.90;21.10;;;-0.50;74.00;;;;;;5052580;28;20421;-60
2022/11/20 00:17:25;;;;;;;30.17;20.38;;;-0.40;81.90;;;;;;5052455;28;20413;-60
2022/11/20 00:19:52;;;;;;;32.42;21.77;;;-0.30;86.80;;;;;;5053011;28;21136;-60
2022/11/20 00:22:18;;;;;;;30.60;21.70;;;-0.30;92.50;;;;;;5053456;28;20820;-59
2022/11/20 00:24:45;;;;;;;28.58;19.88;;;-0.30;94.70;;;;;;5053832;28;20413;-60
2022/11/20 00:27:12;;;;;;;27.73;18.73;;;-0.20;99.90;;;;;;5053008;28;20923;-60
2022/11/20 00:29:40;;;;;;;29.23;19.77;;;-0.20;99.90;;;;;;5053394;28;20417;-60
2022/11/20 00:32:06;;;;;;;26.60;18.73;;;-0.10;99.90;;;;;;5053341;28;20475;-59
2022/11/20 00:34:33;;;;;;;28.95;19.27;;;0.00;99.90;;;;;;5053105;28;20417;-60
2022/11/20 00:37:00;;;;;;;31.33;21.38;;;-0.10;99.90;;;;;;5053246;28;20876;-60
2022/11/20 00:39:26;;;;;;;33.17;21.67;;;-0.20;99.90;;;;;;5052566;28;20946;-56
2022/11/20 00:41:53;;;;;;;29.83;19.92;;;-0.20;99.90;;;;;;5052900;28;20413;-60
2022/11/20 00:44:20;;;;;;;29.67;19.30;;;0.10;99.90;;;;;;5052652;28;20851;-60
2022/11/20 00:46:48;;;;;;;31.83;20.85;;;0.00;99.90;;;;;;5052461;28;20426;-59
2022/11/20 00:49:14;;;;;;;34.40;22.83;;;-0.20;99.90;;;;;;5052824;28;20414;-60
2022/11/20 00:51:41;;;;;;;30.00;20.23;;;-0.10;99.90;;;;;;5053284;28;20471;-59
2022/11/20 00:54:08;;;;;;;28.98;19.70;;;0.00;99.90;;;;;;5054472;28;20424;-58
2022/11/20 00:56:34;;;;;;;28.73;19.40;;;0.10;99.90;;;;;;5054446;28;20419;-60
2022/11/20 00:59:01;;;;;;;28.33;19.42;;;0.30;99.90;;;;;;5053751;28;20410;-60
2022/11/20 01:01:29;;;;;;;27.90;18.85;;;0.30;99.90;;;;;;5054256;28;20418;-60
2022/11/20 01:04:00;;;;;;;29.40;19.05;;;0.40;99.90;;;;;;5053939;28;20445;-60
2022/11/20 01:06:29;;;;;;;28.17;20.25;;;0.40;99.90;;;;;;5053627;28;20425;-60
2022/11/20 01:08:58;;;;;;;27.70;18.67;;;0.50;99.90;;;;;;5054006;28;20421;-61
2022/11/20 01:11:27;;;;;;;31.73;20.30;;;0.50;99.90;;;;;;5054073;28;20428;-61
2022/11/20 01:13:55;;;;;;;29.63;19.47;;;0.40;99.90;;;;;;5053932;28;20447;-60
2022/11/20 01:16:24;;;;;;;29.52;20.00;;;0.40;99.90;;;;;;5053737;28;20425;-60
2022/11/20 01:18:53;;;;;;;28.63;19.65;;;0.50;99.90;;;;;;5053487;28;20416;-61
2022/11/20 01:21:23;;;;;;;26.83;17.80;;;0.50;99.90;;;;;;5053622;28;20413;-60
2022/11/20 01:23:51;;;;;;;26.95;18.00;;;0.50;99.90;;;;;;5054203;28;20486;-61
2022/11/20 01:26:20;;;;;;;28.83;18.98;;;0.50;99.90;;;;;;5053639;28;20425;-59
2022/11/20 01:28:48;;;;;;;28.48;18.67;;;0.50;99.90;;;;;;5053798;28;20443;-60
2022/11/20 01:31:17;;;;;;;28.40;18.45;;;0.50;99.90;;;;;;5054428;28;20640;-60
2022/11/20 01:33:44;;;;;;;26.33;17.95;;;0.60;99.90;;;;;;5053774;28;20476;-60
2022/11/20 01:36:11;;;;;;;28.10;18.60;;;0.60;99.90;;;;;;5053673;28;20413;-60
2022/11/20 01:38:40;;;;;;;27.10;18.43;;;0.40;99.90;;;;;;5053218;28;20525;-59
2022/11/20 01:41:08;;;;;;;29.25;19.40;;;0.40;99.90;;;;;;5053276;28;20475;-60
2022/11/20 01:43:34;;;;;;;27.73;17.60;;;0.50;99.90;;;;;;5053595;28;20413;-60
2022/11/20 01:46:15;;;;;;;24.10;16.95;;;0.60;99.90;;;;;;5052187;28;20432;-60
2022/11/20 01:48:52;;;;;;;27.00;18.90;;;0.70;99.90;;;;;;5053698;28;20409;-61
2022/11/20 01:51:24;;;;;;;28.42;19.55;;;0.70;99.90;;;;;;5053364;28;20410;-60
2022/11/20 01:53:54;;;;;;;27.70;18.67;;;0.60;99.90;;;;;;5053570;28;20414;-59
2022/11/20 01:56:22;;;;;;;28.98;18.60;;;0.70;99.90;;;;;;5054065;28;20421;-61
2022/11/20 01:58:51;;;;;;;31.15;19.25;;;0.60;99.90;;;;;;5054534;28;20424;-59
2022/11/20 02:01:18;;;;;;;27.93;18.03;;;0.50;99.90;;;;;;5054165;28;20417;-60
2022/11/20 02:03:45;;;;;;;27.02;17.50;;;0.60;99.90;;;;;;5052775;28;20417;-59
2022/11/20 02:06:17;;;;;;;26.63;18.38;;;0.70;99.90;;;;;;5052939;28;20456;-60
2022/11/20 02:08:44;;;;;;;27.25;18.02;;;0.60;99.90;;;;;;5053658;28;20471;-60
2022/11/20 02:11:13;;;;;;;24.67;16.92;;;0.70;99.90;;;;;;5053724;28;20414;-60
2022/11/20 02:13:45;;;;;;;24.40;16.52;;;0.90;99.90;;;;;;5053000;28;20501;-60
2022/11/20 02:16:19;;;;;;;23.38;15.52;;;1.00;99.90;;;;;;5052367;28;20485;-59
2022/11/20 02:18:47;;;;;;;22.98;15.35;;;1.10;99.90;;;;;;5052225;28;20413;-60
2022/11/20 02:21:27;;;;;;;23.33;15.50;;;1.20;99.90;;;;;;5051634;28;20417;-60
2022/11/20 02:24:04;;;;;;;22.67;15.40;;;1.30;99.90;;;;;;5050806;28;20425;-61
2022/11/20 02:26:34;;;;;;;23.08;15.65;;;1.30;99.90;;;;;;5051048;28;20424;-61
2022/11/20 02:29:02;;;;;;;23.07;15.43;;;1.40;99.90;;;;;;5051238;28;20413;-60
2022/11/20 02:31:29;;;;;;;21.15;15.48;;;1.50;99.90;;;;;;5052907;28;20413;-61
2022/11/20 02:33:57;;;;;;;23.10;15.40;;;1.50;99.90;;;;;;5055560;28;20420;-60
2022/11/20 02:36:27;;;;;;;22.63;15.32;;;1.60;99.90;;;;;;5054772;28;20433;-59
2022/11/20 02:38:54;;;;;;;21.17;15.00;;;1.60;99.90;;;;;;5056070;28;20413;-59
2022/11/20 02:41:22;;;;;;;23.35;15.73;;;1.60;99.90;;;;;;5055488;28;20413;-60
2022/11/20 02:43:48;;;;;;;24.05;15.65;;;1.50;99.90;;;;;;5054616;28;20413;-61
2022/11/20 02:46:15;;;;;;;24.92;16.27;;;1.50;99.90;;;;;;5054130;28;20491;-60
2022/11/20 02:48:42;;;;;;;22.13;15.00;;;1.60;99.90;;;;;;5055248;28;20413;-60
2022/11/20 02:51:09;;;;;;;23.15;15.77;;;1.50;99.90;;;;;;5054521;28;20413;-61
2022/11/20 02:53:35;;;;;;;24.48;15.48;;;1.50;99.90;;;;;;5054675;28;20901;-61
2022/11/20 02:56:02;;;;;;;21.35;14.98;;;1.50;99.90;;;;;;5054503;28;20408;-61
2022/11/20 02:58:30;;;;;;;23.33;15.70;;;1.50;99.90;;;;;;5054717;28;20430;-61
2022/11/20 03:00:56;;;;;;;22.75;15.23;;;1.50;99.90;;;;;;5054507;28;20761;-61
2022/11/20 03:03:23;;;;;;;22.17;15.50;;;1.50;99.90;;;;;;5054602;28;20444;-61
2022/11/20 03:05:50;;;;;;;21.38;14.35;;;1.50;99.90;;;;;;5053781;28;20417;-61
2022/11/20 03:08:16;;;;;;;22.23;14.98;;;1.60;99.90;;;;;;5053923;28;20417;-61
2022/11/20 03:10:43;;;;;;;20.88;14.18;;;1.70;99.90;;;;;;5053978;28;20439;-60
2022/11/20 03:13:10;;;;;;;22.10;14.63;;;1.80;99.90;;;;;;5053482;28;20417;-61
2022/11/20 03:15:38;;;;;;;23.20;14.88;;;1.70;99.90;;;;;;5053662;28;20413;-61
2022/11/20 03:18:05;;;;;;;24.85;15.63;;;1.50;99.90;;;;;;5054496;28;20757;-60
2022/11/20 03:20:33;;;;;;;23.65;15.75;;;1.60;99.90;;;;;;5053950;28;20792;-61
2022/11/20 03:23:00;;;;;;;22.20;14.65;;;1.70;99.90;;;;;;5053968;28;20946;-61
2022/11/20 03:25:27;;;;;;;22.80;14.63;;;1.80;99.90;;;;;;5053598;28;20423;-60
2022/11/20 03:27:55;;;;;;;22.67;15.03;;;1.80;99.90;;;;;;5053172;28;20514;-61
2022/11/20 03:30:22;;;;;;;20.50;13.77;;;1.80;99.90;;;;;;5053612;28;20424;-60
2022/11/20 03:32:53;;;;;;;19.38;13.52;;;1.90;99.90;;;;;;5053803;28;20424;-61
2022/11/20 03:35:19;;;;;;;18.92;13.73;;;2.00;99.90;;;;;;5053536;28;20417;-60
2022/11/20 03:37:46;;;;;;;19.33;13.00;;;2.10;99.90;;;;;;5053265;28;20454;-61
2022/11/20 03:40:13;;;;;;;20.85;13.93;;;2.10;99.90;;;;;;5053539;28;20414;-60
2022/11/20 03:42:46;;;;;;;19.85;13.90;;;1.90;99.90;;;;;;5052000;28;20410;-61
2022/11/20 03:45:13;;;;;;;19.63;13.82;;;2.00;99.90;;;;;;5053029;28;20788;-61
2022/11/20 03:47:40;;;;;;;19.00;12.63;;;2.10;99.90;;;;;;5052671;28;20479;-61
2022/11/20 03:50:09;;;;;;;18.02;12.60;;;2.10;99.90;;;;;;5052701;28;20491;-61
2022/11/20 03:52:36;;;;;;;18.33;12.68;;;2.20;99.90;;;;;;5052596;28;20444;-61
2022/11/20 03:55:03;;;;;;;18.92;12.88;;;2.30;99.90;;;;;;5052879;28;20457;-61
2022/11/20 03:57:30;;;;;;;18.95;12.55;;;2.30;99.90;;;;;;5052607;28;20417;-61
2022/11/20 03:59:56;;;;;;;18.75;13.20;;;2.40;99.90;;;;;;5052346;28;20467;-61
2022/11/20 04:02:23;;;;;;;19.83;12.50;;;2.40;99.90;;;;;;5052472;28;20946;-61
2022/11/20 04:04:49;;;;;;;19.58;13.05;;;2.40;99.90;;;;;;5052466;28;20496;-61
2022/11/20 04:07:17;;;;;;;18.63;12.73;;;2.40;99.90;;;;;;5052213;28;20425;-61
2022/11/20 04:09:44;;;;;;;18.60;12.30;;;2.40;99.90;;;;;;5052575;28;21119;-61
2022/11/20 04:12:11;;;;;;;18.25;12.43;;;2.50;99.90;;;;;;5052684;28;20892;-61
2022/11/20 04:14:38;;;;;;;16.73;12.13;;;2.50;99.90;;;;;;5052027;28;20471;-61
2022/11/20 04:17:05;;;;;;;18.92;12.32;;;2.60;99.90;;;;;;5052001;28;20417;-61
2022/11/20 04:19:32;;;;;;;19.70;12.93;;;2.60;99.90;;;;;;5051962;28;20492;-61
2022/11/20 04:21:58;;;;;;;21.07;13.53;;;2.40;99.90;;;;;;5052207;28;20413;-61
2022/11/20 04:24:27;;;;;;;18.80;12.82;;;2.40;99.90;;;;;;5052272;28;20459;-61
2022/11/20 04:26:54;;;;;;;18.85;12.40;;;2.30;99.90;;;;;;5051877;28;20436;-61
2022/11/20 04:29:20;;;;;;;18.90;12.52;;;2.30;99.90;;;;;;5051983;28;20835;-61
2022/11/20 04:31:47;;;;;;;20.83;13.70;;;2.10;99.90;;;;;;5051817;28;20413;-61
2022/11/20 04:34:14;;;;;;;22.17;14.23;;;2.00;99.90;;;;;;5051585;28;20413;-61
2022/11/20 04:36:40;;;;;;;20.63;14.05;;;2.00;99.90;;;;;;5051634;28;20486;-61
2022/11/20 04:39:07;;;;;;;18.50;12.73;;;2.10;99.90;;;;;;5052135;28;20413;-61
2022/11/20 04:41:36;;;;;;;19.13;13.57;;;2.20;99.90;;;;;;5051967;28;20417;-61
2022/11/20 04:44:05;;;;;;;18.75;12.80;;;2.30;99.90;;;;;;5051522;28;20427;-61
2022/11/20 04:46:33;;;;;;;20.13;13.77;;;2.30;99.90;;;;;;5051319;28;20796;-61
2022/11/20 04:49:00;;;;;;;18.95;12.63;;;2.40;99.90;;;;;;5051796;28;20475;-61
2022/11/20 04:51:27;;;;;;;19.15;13.70;;;2.40;99.90;;;;;;5051855;28;20416;-61
2022/11/20 04:53:54;;;;;;;21.38;14.15;;;2.30;99.90;;;;;;5051025;28;20539;-61
2022/11/20 04:56:21;;;;;;;26.25;16.77;;;2.30;99.90;;;;;;5051248;28;20815;-60
2022/11/20 04:58:49;;;;;;;27.02;17.70;;;2.40;99.90;;;;;;5051055;28;20953;-61
2022/11/20 05:01:17;;;;;;;20.90;13.70;;;2.40;99.90;;;;;;5051310;28;20953;-61
2022/11/20 05:03:45;;;;;;;19.17;12.20;;;2.30;99.90;;;;;;5051512;28;20417;-61
2022/11/20 05:06:13;;;;;;;18.63;12.85;;;2.30;99.90;;;;;;5050754;28;20413;-60
2022/11/20 05:08:40;;;;;;;18.90;13.00;;;2.30;99.90;;;;;;5051267;28;20462;-61
2022/11/20 05:11:09;;;;;;;20.07;13.37;;;2.20;99.90;;;;;;5051266;28;20413;-61
2022/11/20 05:13:36;;;;;;;19.75;13.40;;;2.20;99.90;;;;;;5050893;28;20422;-60
2022/11/20 05:16:05;;;;;;;19.92;13.52;;;2.20;99.90;;;;;;5050909;28;20409;-61
2022/11/20 05:18:32;;;;;;;20.25;12.88;;;2.30;99.90;;;;;;5051544;28;20459;-61
2022/11/20 05:20:59;;;;;;;18.95;13.30;;;2.30;99.30;;;;;;5050886;28;20463;-61
2022/11/20 05:23:26;;;;;;;19.60;13.57;;;2.30;98.10;;;;;;5050903;28;20467;-61
2022/11/20 05:25:53;;;;;;;18.88;12.93;;;2.30;98.30;;;;;;5050680;28;20412;-55
2022/11/20 05:28:21;;;;;;;21.37;13.60;;;2.30;98.00;;;;;;5050357;28;20514;-61
2022/11/20 05:30:47;;;;;;;19.60;13.87;;;2.30;98.50;;;;;;5051264;28;20421;-61
2022/11/20 05:33:16;;;;;;;18.25;12.82;;;2.30;97.10;;;;;;5050876;28;20467;-61
2022/11/20 05:35:43;;;;;;;21.75;13.88;;;2.40;94.60;;;;;;5050541;28;20911;-61
2022/11/20 05:38:09;;;;;;;18.13;13.15;;;2.40;93.90;;;;;;5050312;28;20413;-61
2022/11/20 05:40:36;;;;;;;18.67;12.77;;;2.40;92.90;;;;;;5050903;28;20436;-61
2022/11/20 05:43:03;;;;;;;21.02;13.52;;;2.40;90.90;;;;;;5050651;28;20455;-57
2022/11/20 05:45:30;;;;;;;20.58;14.25;;;2.20;93.20;;;;;;5050610;28;20409;-57
2022/11/20 05:48:00;;;;;;;21.00;14.10;;;2.20;95.00;;;;;;5050459;28;20429;-61
2022/11/20 05:50:28;;;;;;;20.00;14.13;;;2.20;97.80;;;;;;5050863;28;20504;-61
2022/11/20 05:52:55;;;;;;;19.60;13.85;;;2.30;99.20;;;;;;5050639;28;20459;-61
2022/11/20 05:55:22;;;;;;;22.42;15.30;;;2.30;98.70;;;;;;5050463;28;20413;-61
2022/11/20 05:57:48;;;;;;;21.33;15.18;;;2.20;98.90;;;;;;5050158;28;20421;-61
2022/11/20 06:00:16;;;;;;;21.42;15.30;;;2.20;99.10;;;;;;5050587;28;20417;-61
2022/11/20 06:02:43;;;;;;;22.02;15.48;;;2.20;96.60;;;;;;5050597;28;20417;-60
2022/11/20 06:05:09;;;;;;;20.42;14.52;;;2.20;94.90;;;;;;5049997;28;20417;-60
2022/11/20 06:07:37;;;;;;;21.85;15.55;;;2.10;92.80;;;;;;5050000;28;20433;-61
2022/11/20 06:10:04;;;;;;;20.73;14.65;;;2.00;92.40;;;;;;5050197;28;20780;-61
2022/11/20 06:12:33;;;;;;;20.00;13.73;;;2.10;91.70;;;;;;5050402;28;20494;-61
2022/11/20 06:14:59;;;;;;;21.13;14.75;;;2.10;86.30;;;;;;5050538;28;20485;-61
2022/11/20 06:17:26;;;;;;;20.83;14.88;;;2.10;82.70;;;;;;5050343;28;20410;-61
2022/11/20 06:19:53;;;;;;;20.60;15.30;;;2.10;81.20;;;;;;5050120;28;20421;-60
2022/11/20 06:22:19;;;;;;;20.35;15.48;;;2.00;78.00;;;;;;5050179;28;20813;-60
2022/11/20 06:24:48;;;;;;;22.30;16.40;;;2.00;79.60;;;;;;5050413;28;20417;-61
2022/11/20 06:27:14;;;;;;;20.92;15.30;;;2.10;79.00;;;;;;5049721;28;20908;-61
2022/11/20 06:29:41;;;;;;;22.27;15.60;;;2.10;73.00;;;;;;5050265;28;20451;-60
2022/11/20 06:32:08;;;;;;;22.63;14.98;;;2.10;70.00;;;;;;5050211;28;20429;-61
2022/11/20 06:34:34;;;;;;;20.02;14.82;;;2.20;69.40;;;;;;5050180;28;20475;-61
2022/11/20 06:37:01;;;;;;;22.17;15.63;;;2.20;69.00;;;;;;5049896;28;20466;-61
2022/11/20 06:39:28;;;;;;;22.75;15.88;;;2.20;66.80;;;;;;5050360;28;20416;-60
2022/11/20 06:41:56;;;;;;;21.23;15.90;;;2.10;63.50;;;;;;5050473;28;20490;-60
2022/11/20 06:44:22;;;;;;;23.17;16.10;;;2.10;57.40;;;;;;5050110;28;20417;-61
2022/11/20 06:46:49;;;;;;;24.50;16.33;;;2.10;55.00;;;;;;5050303;28;20413;-61
2022/11/20 06:49:15;;;;;;;23.58;16.13;;;2.00;55.30;;;;;;5050301;28;20417;-61
2022/11/20 06:51:42;;;;;;;23.58;16.55;;;2.00;56.50;;;;;;5049584;28;20880;-61
2022/11/20 06:54:09;;;;;;;21.40;17.10;;;2.00;57.60;;;;;;5050262;28;20413;-61
2022/11/20 06:56:35;;;;;;;23.02;15.77;;;2.00;52.80;;;;;;5050118;28;20479;-61
2022/11/20 06:59:06;;;;;;;22.00;16.30;;;1.90;50.00;;;;;;5050087;28;20467;-60
2022/11/20 07:01:33;;;;;;;22.35;15.52;;;1.90;46.70;;;;;;5049552;28;20952;-61
2022/11/20 07:04:00;;;;;;;22.45;15.82;;;1.90;46.10;;;;;;5050002;28;20413;-60
2022/11/20 07:06:26;;;;;;;22.60;16.02;;;1.80;45.10;;;;;;5050595;28;20428;-61
2022/11/20 07:08:53;;;;;;;21.50;15.20;;;1.80;44.00;;;;;;5050770;28;20514;-61
2022/11/20 07:11:20;;;;;;;21.53;15.30;;;1.80;43.40;;;;;;5050128;28;20418;-59
2022/11/20 07:13:47;;;;;;;23.63;15.50;;;1.80;41.40;;;;;;5049727;28;20504;-61
2022/11/20 07:16:15;;;;;;;20.52;15.43;;;1.80;40.70;;;;;;5049973;28;20413;-61
2022/11/20 07:18:41;;;;;;;22.80;15.57;;;1.80;38.10;;;;;;5053841;28;20417;-60
2022/11/20 07:21:10;;;;;;;21.95;16.30;;;1.80;33.50;;;;;;5053799;28;20758;-57
2022/11/20 07:23:37;;;;;;;22.58;16.02;;;1.80;31.60;;;;;;5054631;28;20413;-60
2022/11/20 07:26:05;;;;;;;21.60;15.57;;;1.80;30.20;;;;;;5054836;28;20413;-60
2022/11/20 07:28:31;;;;;;;21.88;15.98;;;1.70;28.80;;;;;;5054688;28;20429;-60
2022/11/20 07:30:58;;;;;;;24.33;16.52;;;1.70;27.90;;;;;;5055164;28;20494;-60
2022/11/20 07:33:26;;;;;;;25.52;17.63;;;1.70;26.20;;;;;;5055349;28;20409;-60
2022/11/20 07:35:53;;;;;;;22.58;15.70;;;1.70;24.80;;;;;;5055327;28;20425;-57
2022/11/20 07:38:19;;;;;;;23.10;16.40;;;1.60;22.00;;;;;;5055757;28;20409;-60
2022/11/20 07:40:46;;;;;;;23.08;15.98;;;1.60;20.60;;;;;;5055573;28;20420;-60
2022/11/20 07:43:13;;;;;;;24.42;16.27;;;1.60;18.80;;;;;;5055848;28;20447;-59
2022/11/20 07:45:39;;;;;;;24.15;15.75;;;1.60;17.70;;;;;;5055450;28;20417;-60
2022/11/20 07:48:06;;;;;;;22.88;16.48;;;1.60;16.40;;;;;;5055615;28;20425;-60
2022/11/20 07:50:34;;;;;;;23.35;16.52;;;1.50;17.30;;;;;;5055509;28;20428;-58
2022/11/20 07:53:03;;;;;;;24.30;17.45;;;1.60;20.70;;;;;;5055388;28;20417;-59
2022/11/20 07:55:30;;;;;;;22.23;16.63;;;1.60;22.10;;;;;;5055367;28;20413;-60
2022/11/20 07:57:57;;;;;;;25.00;16.90;;;1.60;23.60;;;;;;5055172;28;20467;-60
2022/11/20 08:00:24;;;;;;;24.13;16.10;;;1.70;25.50;;;;;;5054749;28;20421;-60
2022/11/20 08:02:50;;;;;;;22.98;16.77;;;1.70;27.30;;;;;;5054859;28;20424;-60
2022/11/20 08:05:17;;;;;;;24.10;16.55;;;1.80;29.00;;;;;;5055872;28;20417;-59
2022/11/20 08:07:45;;;;;;;24.45;17.33;;;1.80;26.40;;;;;;5054121;28;20425;-60
2022/11/20 08:10:15;;;;;;;23.55;17.35;;;1.80;27.30;;;;;;5054693;28;20416;-60
2022/11/20 08:15:29;;;;;;;26.98;18.80;;;2.00;28.60;;;;;;5053983;28;20496;-60
2022/11/20 08:18:01;;;;;;;29.60;19.73;;;2.10;22.90;;;;;;5053446;28;20402;-60
2022/11/20 08:20:28;;;;;;;26.88;19.05;;;2.10;22.60;;;;;;5054031;28;20425;-58
2022/11/20 08:23:01;;;;;;;28.60;19.67;;;2.20;20.70;;;;;;5053135;28;20413;-60
2022/11/20 08:25:28;;;;;;;27.90;20.67;;;2.20;19.50;;;;;;5053243;28;20962;-60
2022/11/20 08:27:57;;;;;;;28.67;20.17;;;2.30;19.90;;;;;;5053520;28;20433;-60
2022/11/20 08:30:24;;;;;;;30.63;20.67;;;2.30;21.50;;;;;;5052411;28;20420;-59
2022/11/20 08:32:50;;;;;;;28.95;20.77;;;2.40;19.70;;;;;;5052830;28;20421;-60
2022/11/20 08:35:17;;;;;;;30.88;22.52;;;2.40;17.40;;;;;;5052807;28;20416;-60
2022/11/20 08:37:47;;;;;;;32.17;21.92;;;2.30;16.10;;;;;;5052379;28;20417;-60
2022/11/20 08:40:15;;;;;;;30.70;22.33;;;2.40;20.40;;;;;;5052870;28;20440;-60
2022/11/20 08:42:47;;;;;;;27.48;20.38;;;2.40;24.30;;;;;;5052426;28;20421;-60
2022/11/20 08:45:14;;;;;;;27.83;19.27;;;2.50;25.30;;;;;;5052503;28;20827;-60
2022/11/20 08:47:41;;;;;;;25.70;19.75;;;2.60;25.50;;;;;;5051647;28;20410;-60
2022/11/20 08:50:09;;;;;;;28.15;20.25;;;2.70;22.50;;;;;;5052345;28;20504;-60
2022/11/20 08:52:36;;;;;;;27.50;20.35;;;2.80;18.40;;;;;;5051597;28;20919;-61
2022/11/20 08:55:03;;;;;;;24.95;17.92;;;2.70;11.10;;;;;;5052069;28;20488;-60
2022/11/20 08:57:32;;;;;;;25.08;16.80;;;2.70;2.80;;;;;;5051484;28;20926;-60
2022/11/20 08:59:59;;;;;;;23.58;17.63;;;2.80;1.00;;;;;;5051737;28;20483;-60
2022/11/20 09:02:26;;;;;;;24.75;17.77;;;2.70;1.00;;;;;;5051751;28;20452;-61
2022/11/20 09:04:53;;;;;;;25.95;19.08;;;2.80;1.00;;;;;;5051603;28;20432;-60
2022/11/20 09:07:20;;;;;;;24.50;18.30;;;2.90;1.00;;;;;;5051568;28;20504;-60
2022/11/20 09:09:47;;;;;;;24.13;16.42;;;2.90;1.00;;;;;;5052121;28;20429;-56
2022/11/20 09:12:14;;;;;;;23.75;17.02;;;2.90;1.00;;;;;;5052077;28;20418;-60
2022/11/20 09:14:42;;;;;;;24.48;17.70;;;3.00;1.00;;;;;;5051463;28;20445;-59
2022/11/20 09:17:13;;;;;;;24.70;17.23;;;2.90;1.00;;;;;;5051687;28;20424;-59
2022/11/20 09:19:39;;;;;;;22.35;16.35;;;3.00;1.00;;;;;;5051813;28;20420;-60
2022/11/20 09:22:06;;;;;;;22.70;15.95;;;3.10;1.00;;;;;;5051655;28;20421;-59
2022/11/20 09:24:33;;;;;;;23.65;16.75;;;3.10;1.00;;;;;;5051154;28;20413;-60
2022/11/20 09:27:02;;;;;;;24.77;17.33;;;3.30;1.00;;;;;;5051266;28;20471;-60
2022/11/20 09:29:29;;;;;;;23.92;16.90;;;3.40;1.00;;;;;;5051262;28;20432;-59
2022/11/20 09:31:57;;;;;;;21.17;15.50;;;3.30;1.00;;;;;;5051487;28;20827;-60
2022/11/20 09:34:24;;;;;;;21.02;14.88;;;3.40;1.00;;;;;;5053314;28;20421;-60
2022/11/20 09:36:50;;;;;;;19.05;14.10;;;3.40;1.00;;;;;;5052720;28;20453;-60
2022/11/20 09:39:17;;;;;;;22.35;15.65;;;3.40;1.00;;;;;;5052024;28;20414;-60
2022/11/20 09:42:18;;;;;;;22.88;15.75;;;3.50;1.00;;;;;;5050283;28;20412;-58
2022/11/20 09:45:07;;;;;;;22.35;16.20;;;3.60;1.00;;;;;;5015221;28;20432;-60
2022/11/20 09:47:46;;;;;;;22.08;16.65;;;3.70;1.00;;;;;;5051370;28;20421;-60
2022/11/20 09:50:25;;;;;;;23.95;16.77;;;3.50;1.00;;;;;;5053241;28;20815;-60
2022/11/20 09:53:07;;;;;;;20.63;14.85;;;3.30;1.00;;;;;;5051581;28;20421;-60
2022/11/20 09:55:36;;;;;;;20.27;14.35;;;3.50;1.00;;;;;;5051332;28;20421;-59
2022/11/20 09:58:07;;;;;;;18.35;13.95;;;3.70;1.00;;;;;;5051081;28;20413;-60
2022/11/20 10:00:36;;;;;;;17.17;12.93;;;3.80;1.00;;;;;;5051011;28;20436;-60
2022/11/20 10:03:12;;;;;;;19.80;14.38;;;3.90;1.00;;;;;;5050722;28;20417;-60
2022/11/20 10:05:45;;;;;;;20.65;14.98;;;3.80;1.00;;;;;;5050765;28;20417;-57
2022/11/20 10:08:17;;;;;;;21.65;15.13;;;3.80;1.00;;;;;;5050738;28;20425;-60
2022/11/20 10:10:48;;;;;;;20.67;14.57;;;4.00;1.00;;;;;;5050428;28;20473;-57
2022/11/20 10:13:26;;;;;;;20.58;15.43;;;4.10;1.00;;;;;;5050322;28;20432;-58
2022/11/20 10:16:04;;;;;;;21.17;15.50;;;4.10;1.00;;;;;;5050290;28;20455;-58
2022/11/20 10:18:45;;;;;;;23.55;16.27;;;3.90;1.00;;;;;;5050737;28;20405;-58
2022/11/20 10:21:19;;;;;;;22.38;16.52;;;3.90;1.00;;;;;;5050466;28;20417;-60
2022/11/20 10:24:12;;;;;;;22.00;16.13;;;4.10;1.00;;;;;;5050306;28;20411;-60
2022/11/20 10:26:45;;;;;;;24.50;16.02;;;4.00;1.00;;;;;;5033584;28;20429;-64
2022/11/20 10:29:16;;;;;;;23.30;16.10;;;3.80;1.00;;;;;;5041603;28;20425;-60
2022/11/20 10:31:46;;;;;;;20.65;14.50;;;4.00;1.00;;;;;;5049436;28;20888;-58
2022/11/20 10:34:22;;;;;;;24.25;16.48;;;4.20;1.00;;;;;;5049124;28;20405;-59
2022/11/20 10:36:55;;;;;;;19.33;13.90;;;4.30;1.00;;;;;;5049198;28;20424;-58
2022/11/20 10:39:29;;;;;;;16.30;11.68;;;4.50;1.00;;;;;;5049713;28;20766;-60
2022/11/20 10:41:57;;;;;;;15.82;11.77;;;4.20;1.00;;;;;;5050035;28;20417;-60
2022/11/20 10:47:19;;;;;;;14.68;10.45;;;4.40;1.00;;;;;;5033325;28;20412;-58
2022/11/20 10:49:51;;;;;;;14.52;10.23;;;4.40;1.00;;;;;;5049659;28;20777;-60
2022/11/20 10:52:24;;;;;;;14.32;10.27;;;4.40;1.00;;;;;;5050832;28;20424;-59
2022/11/20 10:54:59;;;;;;;14.30;10.48;;;4.60;1.00;;;;;;5053550;28;20888;-59
2022/11/20 10:57:42;;;;;;;13.63;9.25;;;4.40;1.00;;;;;;5053490;28;20419;-62
2022/11/20 11:00:13;;;;;;;13.40;9.65;;;4.40;1.00;;;;;;5053172;28;20508;-61
2022/11/20 11:02:46;;;;;;;14.03;9.43;;;4.40;1.00;;;;;;5051951;28;20961;-60
2022/11/20 11:05:23;;;;;;;13.82;9.20;;;4.30;1.00;;;;;;5053392;28;20413;-60
2022/11/20 11:07:53;;;;;;;14.05;9.23;;;4.50;1.00;;;;;;5053093;28;20475;-60
2022/11/20 11:10:24;;;;;;;13.27;9.10;;;4.30;1.00;;;;;;5048881;28;20433;-61
2022/11/20 11:12:51;;;;;;;12.75;8.90;;;4.50;1.00;;;;;;5053495;28;20421;-62
2022/11/20 11:15:27;;;;;;;12.73;8.73;;;4.70;99.90;;;;;;5053281;28;20426;-61
2022/11/20 11:17:54;;;;;;;13.75;9.27;;;4.80;99.90;;;;;;5052601;28;20530;-60
2022/11/20 11:20:23;;;;;;;15.25;9.95;;;4.80;99.90;;;;;;5052916;28;20757;-61
2022/11/20 11:22:52;;;;;;;12.07;8.85;;;4.90;1.00;;;;;;5052807;28;20413;-62
2022/11/20 11:25:25;;;;;;;11.93;9.05;;;5.10;99.90;;;;;;5053591;28;20413;-61
2022/11/20 11:27:54;;;;;;;13.90;9.27;;;4.90;99.90;;;;;;5052825;28;20417;-58
2022/11/20 11:30:22;;;;;;;13.20;8.68;;;4.60;99.90;;;;;;5052736;28;20424;-61
2022/11/20 11:32:49;;;;;;;15.20;9.45;;;4.60;99.90;;;;;;5052922;28;20887;-59
2022/11/20 11:35:28;;;;;;;14.05;9.88;;;4.60;99.90;;;;;;5054630;28;20417;-60
2022/11/20 11:38:03;;;;;;;14.18;8.77;;;4.50;1.00;;;;;;5053900;28;20417;-62
2022/11/20 11:40:32;;;;;;;16.05;9.55;;;4.40;1.00;;;;;;5055169;28;20475;-61
2022/11/20 11:43:02;;;;;;;14.35;10.23;;;4.50;1.00;;;;;;5053289;28;20421;-60
2022/11/20 11:45:28;;;;;;;14.60;9.73;;;4.60;1.00;;;;;;5055334;28;20416;-61
2022/11/20 11:47:57;;;;;;;15.80;10.07;;;4.80;1.00;;;;;;5053829;28;20413;-59
2022/11/20 11:50:27;;;;;;;15.13;10.27;;;4.70;99.90;;;;;;5053485;28;20459;-59
2022/11/20 11:53:09;;;;;;;16.33;10.00;;;4.60;1.00;;;;;;5052258;28;20417;-62
2022/11/20 11:55:41;;;;;;;15.68;10.25;;;4.50;99.90;;;;;;5052408;28;20424;-61
2022/11/20 11:58:18;;;;;;;14.93;10.30;;;4.70;1.00;;;;;;5051871;28;20772;-63
2022/11/20 12:00:55;;;;;;;15.98;10.52;;;4.80;1.00;;;;;;5054543;28;20410;-59
2022/11/20 12:03:28;;;;;;;15.80;10.02;;;4.90;1.00;;;;;;5051945;28;20440;-60
2022/11/20 12:05:58;;;;;;;15.90;10.93;;;5.10;1.00;;;;;;5052273;28;20413;-61
2022/11/20 12:08:30;;;;;;;16.02;10.65;;;5.30;99.90;;;;;;5052406;28;20417;-60
2022/11/20 12:11:01;;;;;;;16.17;11.02;;;5.10;99.90;;;;;;5052581;28;20413;-61
2022/11/20 12:13:42;;;;;;;17.27;11.68;;;5.10;99.90;;;;;;5052308;28;20421;-61
2022/11/20 12:16:13;;;;;;;17.17;11.40;;;5.00;99.90;;;;;;5051894;28;20417;-63
2022/11/20 12:18:40;;;;;;;20.60;12.35;;;5.10;1.00;;;;;;5051591;28;20425;-63
2022/11/20 12:21:19;;;;;;;16.92;11.50;;;5.40;1.00;;;;;;5051250;28;21150;-61
2022/11/20 12:24:05;;;;;;;17.20;11.88;;;5.60;1.00;;;;;;5053049;28;20913;-60
2022/11/20 12:26:47;;;;;;;18.65;11.65;;;5.50;99.90;;;;;;5052348;28;20410;-59
2022/11/20 12:29:22;;;;;;;17.10;11.90;;;5.50;99.90;;;;;;5052187;28;20452;-60
2022/11/20 12:32:03;;;;;;;17.90;12.60;;;5.00;99.90;;;;;;5052185;28;20766;-59
2022/11/20 12:34:45;;;;;;;17.42;11.57;;;5.00;99.90;;;;;;5052538;28;20807;-59
2022/11/20 12:37:24;;;;;;;19.02;12.90;;;4.60;99.90;;;;;;5051281;28;20500;-59
2022/11/20 12:39:56;;;;;;;19.27;12.95;;;4.70;1.00;;;;;;5052181;28;20425;-60
2022/11/20 12:46:01;;;;;;;19.88;12.90;;;4.80;1.00;;;;;;5051826;28;20491;-60
2022/11/20 12:48:43;;;;;;;20.80;14.23;;;4.70;1.00;;;;;;5051640;28;20794;-60
2022/11/20 12:51:25;;;;;;;22.27;14.68;;;4.70;1.00;;;;;;5050303;28;20422;-59
2022/11/20 12:54:05;;;;;;;19.83;13.13;;;4.60;1.00;;;;;;5051209;28;20989;-60
2022/11/20 12:56:41;;;;;;;18.77;13.33;;;4.60;1.00;;;;;;5051698;28;20465;-59